createdAt,value
2019-02-22T00:00:11.928Z,106.80
2019-02-22T00:01:11.830Z,100.80
2019-02-22T00:02:11.727Z,101.30
2019-02-22T00:03:11.631Z,96.90
2019-02-22T00:04:11.543Z,100.90
2019-02-22T00:05:11.542Z,102.80
2019-02-22T00:06:11.329Z,98.40
2019-02-22T00:07:11.233Z,91.80
2019-02-22T00:08:11.133Z,103.00
2019-02-22T00:09:11.050Z,97.10
2019-02-22T00:10:10.948Z,96.80
2019-02-22T00:11:10.834Z,104.30
2019-02-22T00:12:10.842Z,101.30
2019-02-22T00:13:10.634Z,103.90
2019-02-22T00:14:10.554Z,103.00
2019-02-22T00:15:10.437Z,102.50
2019-02-22T00:16:10.340Z,109.40
2019-02-22T00:17:10.239Z,94.30
2019-02-22T00:18:10.142Z,94.70
2019-02-22T00:19:10.159Z,99.40
2019-02-22T00:20:09.941Z,101.30
2019-02-22T00:21:09.843Z,107.90
2019-02-22T00:22:09.744Z,106.80
2019-02-22T00:23:09.643Z,107.20
2019-02-22T00:24:09.561Z,99.30
2019-02-22T00:25:09.555Z,102.60
2019-02-22T00:26:11.125Z,104.20
2019-02-22T00:27:09.247Z,102.80
2019-02-22T00:28:09.149Z,107.70
2019-02-22T00:29:09.064Z,105.60
2019-02-22T00:30:08.948Z,104.20
2019-02-22T00:31:08.851Z,100.90
2019-02-22T00:32:08.752Z,104.20
2019-02-22T00:33:08.751Z,110.20
2019-02-22T00:34:08.569Z,110.00
2019-02-22T00:35:08.484Z,113.30
2019-02-22T00:36:08.431Z,120.10
2019-02-22T00:37:08.311Z,110.30
2019-02-22T00:38:08.156Z,114.70
2019-02-22T00:39:08.070Z,108.70
2019-02-22T00:40:07.963Z,112.50
2019-02-22T00:41:07.855Z,108.50
2019-02-22T00:42:07.755Z,117.50
2019-02-22T00:43:07.661Z,112.90
2019-02-22T00:44:07.578Z,121.40
2019-02-22T00:45:07.460Z,109.10
2019-02-22T00:46:07.379Z,105.80
2019-02-22T00:47:07.263Z,116.60
2019-02-22T00:48:07.161Z,117.70
2019-02-22T00:49:07.061Z,105.60
2019-02-22T00:50:06.978Z,107.10
2019-02-22T00:51:06.866Z,108.20
2019-02-22T00:52:06.767Z,111.10
2019-02-22T00:53:06.665Z,110.20
2019-02-22T00:54:06.577Z,105.40
2019-02-22T00:55:06.464Z,114.60
2019-02-22T00:56:06.367Z,109.90
2019-02-22T00:57:06.265Z,109.20
2019-02-22T00:58:06.167Z,112.70
2019-02-22T00:59:06.071Z,122.40
2019-02-22T01:00:05.988Z,122.60
2019-02-22T01:01:05.868Z,113.20
2019-02-22T01:02:05.770Z,113.80
2019-02-22T01:03:05.674Z,114.80
2019-02-22T01:04:05.575Z,111.30
2019-02-22T01:05:05.496Z,116.50
2019-02-22T01:06:05.372Z,128.00
2019-02-22T01:07:05.272Z,121.20
2019-02-22T01:08:05.174Z,116.50
2019-02-22T01:09:05.074Z,112.00
2019-02-22T01:10:04.992Z,107.70
2019-02-22T01:11:04.875Z,105.90
2019-02-22T01:12:04.777Z,114.50
2019-02-22T01:13:04.673Z,106.10
2019-02-22T01:14:04.579Z,104.30
2019-02-22T01:15:04.493Z,104.70
2019-02-22T01:16:04.379Z,107.80
2019-02-22T01:17:04.275Z,106.40
2019-02-22T01:18:04.192Z,116.20
2019-02-22T01:19:04.086Z,119.60
2019-02-22T01:20:04.009Z,111.90
2019-02-22T01:21:03.878Z,114.10
2019-02-22T01:22:03.786Z,109.60
2019-02-22T01:23:03.681Z,114.70
2019-02-22T01:24:03.582Z,134.70
2019-02-22T01:25:03.498Z,114.40
2019-02-22T01:26:03.386Z,121.80
2019-02-22T01:27:03.281Z,117.00
2019-02-22T01:28:03.194Z,123.20
2019-02-22T01:29:03.091Z,100.60
2019-02-22T01:30:03.003Z,118.90
2019-02-22T01:31:02.892Z,101.00
2019-02-22T01:32:02.787Z,91.50
2019-02-22T01:33:02.687Z,90.90
2019-02-22T01:34:02.592Z,91.00
2019-02-22T01:35:02.506Z,95.20
2019-02-22T01:36:02.406Z,92.40
2019-02-22T01:37:02.294Z,91.10
2019-02-22T01:38:02.195Z,87.40
2019-02-22T01:39:02.094Z,96.20
2019-02-22T01:40:02.062Z,100.00
2019-02-22T01:41:01.893Z,92.50
2019-02-22T01:42:01.799Z,95.90
2019-02-22T01:43:01.695Z,88.50
2019-02-22T01:44:01.597Z,91.80
2019-02-22T01:45:01.522Z,90.40
2019-02-22T01:46:01.398Z,84.30
2019-02-22T01:47:01.298Z,88.60
2019-02-22T01:48:01.197Z,84.70
2019-02-22T01:49:01.099Z,86.60
2019-02-22T01:50:01.013Z,90.60
2019-02-22T01:51:00.899Z,89.90
2019-02-22T01:52:00.798Z,100.00
2019-02-22T01:53:00.705Z,95.00
2019-02-22T01:54:00.602Z,91.90
2019-02-22T01:55:00.519Z,102.00
2019-02-22T01:56:00.502Z,99.70
2019-02-22T01:57:00.304Z,106.80
2019-02-22T01:58:00.202Z,102.90
2019-02-22T01:59:00.104Z,116.20
2019-02-22T02:00:00.019Z,79.80
2019-02-22T02:00:59.906Z,82.80
2019-02-22T02:01:59.806Z,86.60
2019-02-22T02:02:59.826Z,86.60
2019-02-22T02:03:59.606Z,88.30
2019-02-22T02:04:59.522Z,94.70
2019-02-22T02:05:59.408Z,89.70
2019-02-22T02:06:59.307Z,101.60
2019-02-22T02:07:59.213Z,97.90
2019-02-22T02:08:59.110Z,99.20
2019-02-22T02:09:59.133Z,93.80
2019-02-22T02:10:58.911Z,102.80
2019-02-22T02:11:58.813Z,95.40
2019-02-22T02:12:58.716Z,90.40
2019-02-22T02:13:58.615Z,99.30
2019-02-22T02:14:58.528Z,104.70
2019-02-22T02:15:58.412Z,104.50
2019-02-22T02:16:58.423Z,98.50
2019-02-22T02:17:58.217Z,104.10
2019-02-22T02:18:58.116Z,103.10
2019-02-22T02:19:58.034Z,108.00
2019-02-22T02:20:57.915Z,116.50
2019-02-22T02:21:57.816Z,102.60
2019-02-22T02:22:57.722Z,100.80
2019-02-22T02:23:57.725Z,104.80
2019-02-22T02:24:57.535Z,98.70
2019-02-22T02:25:57.420Z,80.70
2019-02-22T02:26:57.320Z,84.70
2019-02-22T02:27:57.222Z,87.20
2019-02-22T02:28:57.122Z,90.90
2019-02-22T02:29:57.040Z,105.90
2019-02-22T02:30:57.037Z,94.30
2019-02-22T02:31:56.825Z,90.10
2019-02-22T02:32:56.726Z,105.10
2019-02-22T02:33:56.633Z,115.90
2019-02-22T02:34:56.544Z,110.50
2019-02-22T02:35:56.427Z,118.60
2019-02-22T02:36:56.337Z,145.60
2019-02-22T02:37:56.328Z,158.20
2019-02-22T02:38:56.137Z,166.20
2019-02-22T02:39:56.047Z,173.70
2019-02-22T02:41:08.075Z,155.90
2019-02-22T02:41:55.829Z,158.50
2019-02-22T02:42:55.730Z,149.90
2019-02-22T02:43:55.629Z,163.10
2019-02-22T02:44:55.634Z,159.70
2019-02-22T02:45:55.449Z,160.60
2019-02-22T02:46:55.332Z,186.00
2019-02-22T02:47:55.233Z,153.40
2019-02-22T02:48:55.138Z,180.40
2019-02-22T02:49:55.061Z,217.60
2019-02-22T02:50:54.953Z,212.10
2019-02-22T02:51:54.937Z,175.00
2019-02-22T02:52:54.738Z,188.50
2019-02-22T02:53:54.637Z,177.00
2019-02-22T02:54:54.541Z,167.00
2019-02-22T02:55:54.459Z,178.10
2019-02-22T02:56:54.342Z,220.10
2019-02-22T02:57:54.240Z,161.10
2019-02-22T02:58:54.243Z,175.00
2019-02-22T02:59:54.045Z,156.20
2019-02-22T03:00:53.958Z,124.30
2019-02-22T03:01:53.844Z,174.40
2019-02-22T03:02:53.745Z,221.30
2019-02-22T03:03:53.645Z,181.50
2019-02-22T03:04:53.669Z,210.30
2019-02-22T03:05:53.462Z,206.90
2019-02-22T03:06:53.345Z,192.80
2019-02-22T03:07:53.248Z,174.90
2019-02-22T03:08:53.149Z,119.40
2019-02-22T03:09:53.051Z,137.90
2019-02-22T03:10:52.966Z,159.60
2019-02-22T03:11:52.860Z,202.60
2019-02-22T03:12:52.752Z,203.50
2019-02-22T03:13:52.652Z,179.40
2019-02-22T03:14:52.552Z,178.00
2019-02-22T03:15:52.473Z,197.10
2019-02-22T03:16:52.353Z,200.70
2019-02-22T03:17:52.255Z,167.70
2019-02-22T03:18:52.158Z,115.30
2019-02-22T03:19:52.055Z,152.10
2019-02-22T03:20:51.975Z,141.10
2019-02-22T03:21:51.867Z,152.40
2019-02-22T03:22:51.762Z,99.00
2019-02-22T03:23:51.714Z,87.70
2019-02-22T03:24:53.699Z,95.60
2019-02-22T03:25:51.481Z,94.50
2019-02-22T03:26:51.361Z,102.70
2019-02-22T03:27:51.260Z,79.20
2019-02-22T03:28:51.162Z,78.10
2019-02-22T03:29:51.066Z,88.40
2019-02-22T03:30:50.989Z,87.70
2019-02-22T03:31:50.866Z,91.20
2019-02-22T03:32:50.765Z,93.70
2019-02-22T03:33:50.668Z,85.70
2019-02-22T03:34:50.568Z,79.00
2019-02-22T03:35:50.486Z,80.90
2019-02-22T03:36:50.367Z,80.00
2019-02-22T03:37:50.267Z,76.50
2019-02-22T03:38:50.175Z,78.20
2019-02-22T03:39:50.076Z,70.50
2019-02-22T03:40:49.989Z,70.20
2019-02-22T03:41:49.872Z,70.80
2019-02-22T03:42:49.776Z,64.40
2019-02-22T03:43:49.675Z,70.10
2019-02-22T03:44:49.574Z,69.60
2019-02-22T03:45:49.492Z,78.50
2019-02-22T03:46:49.374Z,77.60
2019-02-22T03:47:49.276Z,76.20
2019-02-22T03:48:49.175Z,82.60
2019-02-22T03:49:49.077Z,72.70
2019-02-22T03:50:48.998Z,78.10
2019-02-22T03:51:48.880Z,74.00
2019-02-22T03:52:48.782Z,77.20
2019-02-22T03:53:48.685Z,75.20
2019-02-22T03:54:48.580Z,76.10
2019-02-22T03:55:48.499Z,77.00
2019-02-22T03:56:48.383Z,79.60
2019-02-22T03:57:48.285Z,79.30
2019-02-22T03:58:48.184Z,83.10
2019-02-22T03:59:50.931Z,91.00
2019-02-22T04:00:48.005Z,66.70
2019-02-22T04:01:47.888Z,71.60
2019-02-22T04:02:47.788Z,76.00
2019-02-22T04:03:47.690Z,72.60
2019-02-22T04:04:47.588Z,60.70
2019-02-22T04:05:47.521Z,68.40
2019-02-22T04:06:47.388Z,67.50
2019-02-22T04:07:47.293Z,71.80
2019-02-22T04:08:47.192Z,71.90
2019-02-22T04:09:47.095Z,66.90
2019-02-22T04:10:47.016Z,57.70
2019-02-22T04:11:46.895Z,42.00
2019-02-22T04:12:46.797Z,50.60
2019-02-22T04:13:46.701Z,54.60
2019-02-22T04:14:46.600Z,54.80
2019-02-22T04:15:46.513Z,61.20
2019-02-22T04:16:46.400Z,56.30
2019-02-22T04:17:46.310Z,56.90
2019-02-22T04:18:46.199Z,64.20
2019-02-22T04:19:46.104Z,58.50
2019-02-22T04:20:46.019Z,65.10
2019-02-22T04:21:45.902Z,65.20
2019-02-22T04:22:45.803Z,66.00
2019-02-22T04:23:45.702Z,59.20
2019-02-22T04:24:45.605Z,66.60
2019-02-22T04:25:45.504Z,65.50
2019-02-22T04:26:45.418Z,59.10
2019-02-22T04:27:45.321Z,62.30
2019-02-22T04:28:45.207Z,61.70
2019-02-22T04:29:45.105Z,61.70
2019-02-22T04:30:45.022Z,54.40
2019-02-22T04:31:44.924Z,59.80
2019-02-22T04:32:44.810Z,63.00
2019-02-22T04:33:44.708Z,49.60
2019-02-22T04:34:44.610Z,52.10
2019-02-22T04:35:44.517Z,54.70
2019-02-22T04:36:44.425Z,56.00
2019-02-22T04:37:44.315Z,47.00
2019-02-22T04:38:44.217Z,46.30
2019-02-22T04:39:44.115Z,47.40
2019-02-22T04:40:44.015Z,49.30
2019-02-22T04:41:43.930Z,48.60
2019-02-22T04:42:43.917Z,49.40
2019-02-22T04:43:43.717Z,43.50
2019-02-22T04:44:43.617Z,43.40
2019-02-22T04:45:43.523Z,42.70
2019-02-22T04:46:43.437Z,41.90
2019-02-22T04:47:43.322Z,43.10
2019-02-22T04:48:43.219Z,45.20
2019-02-22T04:49:43.132Z,45.20
2019-02-22T04:50:43.023Z,44.00
2019-02-22T04:51:42.939Z,43.30
2019-02-22T04:52:42.822Z,46.00
2019-02-22T04:53:42.723Z,44.00
2019-02-22T04:54:42.630Z,46.80
2019-02-22T04:55:42.524Z,47.40
2019-02-22T04:56:42.555Z,45.90
2019-02-22T04:57:42.327Z,46.40
2019-02-22T04:58:42.230Z,45.90
2019-02-22T04:59:42.129Z,44.30
2019-02-22T05:00:42.029Z,44.30
2019-02-22T05:01:41.945Z,46.20
2019-02-22T05:02:41.842Z,49.80
2019-02-22T05:03:41.853Z,46.20
2019-02-22T05:04:41.632Z,44.70
2019-02-22T05:05:41.531Z,44.10
2019-02-22T05:06:41.452Z,43.20
2019-02-22T05:07:41.336Z,46.30
2019-02-22T05:08:41.237Z,46.70
2019-02-22T05:09:41.136Z,50.30
2019-02-22T05:10:41.134Z,50.40
2019-02-22T05:11:40.952Z,45.20
2019-02-22T05:12:40.834Z,41.70
2019-02-22T05:13:40.737Z,44.40
2019-02-22T05:14:40.648Z,48.60
2019-02-22T05:15:40.538Z,48.70
2019-02-22T05:16:40.454Z,46.10
2019-02-22T05:17:40.438Z,50.30
2019-02-22T05:18:40.240Z,49.30
2019-02-22T05:19:40.145Z,42.50
2019-02-22T05:20:40.043Z,43.00
2019-02-22T05:21:39.990Z,46.10
2019-02-22T05:22:39.851Z,44.20
2019-02-22T05:23:39.745Z,47.50
2019-02-22T05:24:39.649Z,45.90
2019-02-22T05:25:39.548Z,47.60
2019-02-22T05:26:39.464Z,48.20
2019-02-22T05:27:39.343Z,47.00
2019-02-22T05:28:39.244Z,51.70
2019-02-22T05:29:39.145Z,48.80
2019-02-22T05:30:39.051Z,54.90
2019-02-22T05:31:38.966Z,50.90
2019-02-22T05:32:38.849Z,46.20
2019-02-22T05:33:38.752Z,45.10
2019-02-22T05:34:38.652Z,43.90
2019-02-22T05:35:38.552Z,46.00
2019-02-22T05:36:38.471Z,45.70
2019-02-22T05:37:38.355Z,45.60
2019-02-22T05:38:38.249Z,48.00
2019-02-22T05:39:38.153Z,40.30
2019-02-22T05:40:38.073Z,45.10
2019-02-22T05:41:37.977Z,46.80
2019-02-22T05:42:37.859Z,51.80
2019-02-22T05:43:37.756Z,45.60
2019-02-22T05:44:37.653Z,42.00
2019-02-22T05:45:37.556Z,40.70
2019-02-22T05:46:37.477Z,38.00
2019-02-22T05:47:37.355Z,37.90
2019-02-22T05:48:38.877Z,37.50
2019-02-22T05:49:37.159Z,34.30
2019-02-22T05:50:37.064Z,33.70
2019-02-22T05:51:36.979Z,34.30
2019-02-22T05:52:36.862Z,33.90
2019-02-22T05:53:37.076Z,32.50
2019-02-22T05:54:36.660Z,31.40
2019-02-22T05:55:36.562Z,34.10
2019-02-22T05:56:36.479Z,36.20
2019-02-22T05:57:36.366Z,36.40
2019-02-22T05:58:36.269Z,33.80
2019-02-22T05:59:36.166Z,31.90
2019-02-22T06:00:36.175Z,29.80
2019-02-22T06:01:35.988Z,29.30
2019-02-22T06:02:35.866Z,30.50
2019-02-22T06:03:35.767Z,31.00
2019-02-22T06:04:35.667Z,30.10
2019-02-22T06:05:35.572Z,30.60
2019-02-22T06:06:35.490Z,32.30
2019-02-22T06:07:35.370Z,32.40
2019-02-22T06:08:35.269Z,34.50
2019-02-22T06:09:35.173Z,33.30
2019-02-22T06:10:35.070Z,30.60
2019-02-22T06:11:35.108Z,32.50
2019-02-22T06:12:35.171Z,33.30
2019-02-22T06:13:34.775Z,31.60
2019-02-22T06:14:34.673Z,27.80
2019-02-22T06:15:34.578Z,27.50
2019-02-22T06:16:34.480Z,31.30
2019-02-22T06:17:34.401Z,30.90
2019-02-22T06:18:34.277Z,32.60
2019-02-22T06:19:34.178Z,31.50
2019-02-22T06:20:34.076Z,29.40
2019-02-22T06:21:33.978Z,28.80
2019-02-22T06:22:33.899Z,30.10
2019-02-22T06:23:33.780Z,27.20
2019-02-22T06:24:33.693Z,27.10
2019-02-22T06:25:33.582Z,26.90
2019-02-22T06:26:33.481Z,27.00
2019-02-22T06:27:33.401Z,27.90
2019-02-22T06:28:33.285Z,27.50
2019-02-22T06:29:33.183Z,28.10
2019-02-22T06:30:33.087Z,30.50
2019-02-22T06:31:32.987Z,30.40
2019-02-22T06:32:32.900Z,27.80
2019-02-22T06:33:32.788Z,29.60
2019-02-22T06:34:32.691Z,29.90
2019-02-22T06:35:32.587Z,27.60
2019-02-22T06:36:32.494Z,24.60
2019-02-22T06:37:32.408Z,27.10
2019-02-22T06:38:32.290Z,29.40
2019-02-22T06:39:32.195Z,29.00
2019-02-22T06:40:32.092Z,28.40
2019-02-22T06:41:31.992Z,25.50
2019-02-22T06:42:31.911Z,29.00
2019-02-22T06:43:31.794Z,27.60
2019-02-22T06:44:31.696Z,27.20
2019-02-22T06:45:31.595Z,26.20
2019-02-22T06:46:31.497Z,27.70
2019-02-22T06:47:31.415Z,25.70
2019-02-22T06:48:31.299Z,27.90
2019-02-22T06:49:31.195Z,28.00
2019-02-22T06:50:34.026Z,28.30
2019-02-22T06:51:31.001Z,26.80
2019-02-22T06:52:30.918Z,24.90
2019-02-22T06:53:30.797Z,22.60
2019-02-22T06:54:30.698Z,24.60
2019-02-22T06:55:30.616Z,22.90
2019-02-22T06:56:30.499Z,22.00
2019-02-22T06:57:30.421Z,19.70
2019-02-22T06:58:30.306Z,19.80
2019-02-22T06:59:30.203Z,20.30
2019-02-22T07:00:30.110Z,20.00
2019-02-22T07:01:30.005Z,20.70
2019-02-22T07:02:29.922Z,21.20
2019-02-22T07:03:29.813Z,21.70
2019-02-22T07:04:29.707Z,21.20
2019-02-22T07:05:29.606Z,21.40
2019-02-22T07:06:29.509Z,20.70
2019-02-22T07:07:29.436Z,19.50
2019-02-22T07:08:29.315Z,21.10
2019-02-22T07:09:29.210Z,19.70
2019-02-22T07:10:29.111Z,18.90
2019-02-22T07:11:29.010Z,17.70
2019-02-22T07:12:28.955Z,17.80
2019-02-22T07:13:28.811Z,17.70
2019-02-22T07:14:28.710Z,21.30
2019-02-22T07:15:28.615Z,21.40
2019-02-22T07:16:28.520Z,19.60
2019-02-22T07:17:28.435Z,20.50
2019-02-22T07:18:28.320Z,19.00
2019-02-22T07:19:28.216Z,18.80
2019-02-22T07:20:28.119Z,21.00
2019-02-22T07:21:38.863Z,19.70
2019-02-22T07:22:27.940Z,21.10
2019-02-22T07:23:27.821Z,19.10
2019-02-22T07:24:27.722Z,16.80
2019-02-22T07:25:27.623Z,18.20
2019-02-22T07:26:27.522Z,17.20
2019-02-22T07:27:27.430Z,17.10
2019-02-22T07:28:27.340Z,16.60
2019-02-22T07:29:27.224Z,15.80
2019-02-22T07:30:27.126Z,16.50
2019-02-22T07:31:27.024Z,13.40
2019-02-22T07:32:26.946Z,14.70
2019-02-22T07:33:26.827Z,13.70
2019-02-22T07:34:26.743Z,14.80
2019-02-22T07:35:26.637Z,14.50
2019-02-22T07:36:26.530Z,15.90
2019-02-22T07:37:26.436Z,14.00
2019-02-22T07:38:26.355Z,13.70
2019-02-22T07:39:28.182Z,12.80
2019-02-22T07:40:26.132Z,12.90
2019-02-22T07:41:26.031Z,13.30
2019-02-22T07:42:25.987Z,14.20
2019-02-22T07:43:25.853Z,12.00
2019-02-22T07:44:25.847Z,12.90
2019-02-22T07:45:25.636Z,11.60
2019-02-22T07:46:25.541Z,10.70
2019-02-22T07:47:25.443Z,9.80
2019-02-22T07:48:25.357Z,10.40
2019-02-22T07:49:25.241Z,10.40
2019-02-22T07:50:25.141Z,12.20
2019-02-22T07:51:25.144Z,12.30
2019-02-22T07:52:24.992Z,11.70
2019-02-22T07:53:24.863Z,10.70
2019-02-22T07:54:24.747Z,8.70
2019-02-22T07:55:24.650Z,10.60
2019-02-22T07:56:24.544Z,8.90
2019-02-22T07:57:24.446Z,8.60
2019-02-22T07:58:24.471Z,7.20
2019-02-22T07:59:24.252Z,6.70
2019-02-22T08:00:24.165Z,6.40
2019-02-22T08:01:26.894Z,6.30
2019-02-22T08:02:23.954Z,5.80
2019-02-22T08:03:23.883Z,4.30
2019-02-22T08:04:23.756Z,3.50
2019-02-22T08:05:23.757Z,4.10
2019-02-22T08:06:23.557Z,3.30
2019-02-22T08:07:23.459Z,3.10
2019-02-22T08:08:23.383Z,3.20
2019-02-22T08:09:23.259Z,3.10
2019-02-22T08:10:23.161Z,2.70
2019-02-22T08:11:23.063Z,2.30
2019-02-22T08:12:23.089Z,2.80
2019-02-22T08:13:22.871Z,2.80
2019-02-22T08:14:22.787Z,2.90
2019-02-22T08:15:22.671Z,2.90
2019-02-22T08:16:22.568Z,3.00
2019-02-22T08:17:22.471Z,3.70
2019-02-22T08:18:22.375Z,3.60
2019-02-22T08:19:22.388Z,3.80
2019-02-22T08:20:22.178Z,4.00
2019-02-22T08:21:22.079Z,4.40
2019-02-22T08:22:21.985Z,4.20
2019-02-22T08:23:21.876Z,4.70
2019-02-22T08:24:21.794Z,4.30
2019-02-22T08:25:21.677Z,4.50
2019-02-22T08:26:21.734Z,4.90
2019-02-22T08:27:21.493Z,5.00
2019-02-22T08:28:21.386Z,5.00
2019-02-22T08:29:21.300Z,5.70
2019-02-22T08:30:21.189Z,5.30
2019-02-22T08:31:21.085Z,4.80
2019-02-22T08:32:20.989Z,5.50
2019-02-22T08:33:21.006Z,4.70
2019-02-22T08:34:20.805Z,5.10
2019-02-22T08:35:20.690Z,5.20
2019-02-22T08:36:20.591Z,4.40
2019-02-22T08:37:20.494Z,5.00
2019-02-22T08:38:20.396Z,4.40
2019-02-22T08:39:20.313Z,4.20
2019-02-22T08:40:20.313Z,4.80
2019-02-22T08:41:20.113Z,3.60
2019-02-22T08:42:19.998Z,4.70
2019-02-22T08:43:30.738Z,4.50
2019-02-22T08:44:19.818Z,4.80
2019-02-22T08:45:19.714Z,5.00
2019-02-22T08:46:19.608Z,4.80
2019-02-22T08:47:19.609Z,5.10
2019-02-22T08:48:19.406Z,4.60
2019-02-22T08:49:19.323Z,4.60
2019-02-22T08:50:19.211Z,4.40
2019-02-22T08:51:19.117Z,4.30
2019-02-22T08:52:19.014Z,4.20
2019-02-22T08:53:19.047Z,4.30
2019-02-22T08:54:18.831Z,4.30
2019-02-22T08:55:18.728Z,5.00
2019-02-22T08:56:18.618Z,4.80
2019-02-22T08:57:18.518Z,4.90
2019-02-22T08:58:18.420Z,5.00
2019-02-22T08:59:18.338Z,4.50
2019-02-22T09:00:18.223Z,4.50
2019-02-22T09:01:18.124Z,4.30
2019-02-22T09:02:18.026Z,4.00
2019-02-22T09:03:17.934Z,4.10
2019-02-22T09:04:17.844Z,3.90
2019-02-22T09:05:17.734Z,3.80
2019-02-22T09:06:17.631Z,4.10
2019-02-22T09:07:17.531Z,3.50
2019-02-22T09:08:17.433Z,2.90
2019-02-22T09:09:17.350Z,2.70
2019-02-22T09:10:17.235Z,2.80
2019-02-22T09:11:17.143Z,3.20
2019-02-22T09:12:17.041Z,3.00
2019-02-22T09:13:16.941Z,3.70
2019-02-22T09:14:16.862Z,3.50
2019-02-22T09:15:16.746Z,3.30
2019-02-22T09:16:16.647Z,3.20
2019-02-22T09:17:16.551Z,2.90
2019-02-22T09:18:16.450Z,3.10
2019-02-22T09:19:16.372Z,3.30
2019-02-22T09:20:16.334Z,3.00
2019-02-22T09:21:16.187Z,2.90
2019-02-22T09:22:22.811Z,2.70
2019-02-22T09:23:15.957Z,3.30
2019-02-22T09:24:15.873Z,3.20
2019-02-22T09:25:15.852Z,3.40
2019-02-22T09:26:15.660Z,3.80
2019-02-22T09:27:15.561Z,3.60
2019-02-22T09:28:15.461Z,3.50
2019-02-22T09:29:15.384Z,3.40
2019-02-22T09:30:15.272Z,3.10
2019-02-22T09:31:15.170Z,3.40
2019-02-22T09:32:15.069Z,3.30
2019-02-22T09:33:14.971Z,2.90
2019-02-22T09:34:14.887Z,3.00
2019-02-22T09:35:14.772Z,3.10
2019-02-22T09:36:14.679Z,3.10
2019-02-22T09:37:14.575Z,3.30
2019-02-22T09:38:14.479Z,3.70
2019-02-22T09:39:14.397Z,3.60
2019-02-22T09:40:14.901Z,3.70
2019-02-22T09:41:14.185Z,3.60
2019-02-22T09:42:14.089Z,3.50
2019-02-22T09:43:13.986Z,3.90
2019-02-22T09:44:13.893Z,4.00
2019-02-22T09:45:13.811Z,4.70
2019-02-22T09:46:13.693Z,4.40
2019-02-22T09:47:13.591Z,4.50
2019-02-22T09:48:13.494Z,5.00
2019-02-22T09:49:13.398Z,5.00
2019-02-22T09:50:13.318Z,4.60
2019-02-22T09:51:13.198Z,5.50
2019-02-22T09:52:13.101Z,5.30
2019-02-22T09:53:13.005Z,5.00
2019-02-22T09:54:12.906Z,5.20
2019-02-22T09:55:12.820Z,5.00
2019-02-22T09:56:12.705Z,4.30
2019-02-22T09:57:12.607Z,5.10
2019-02-22T09:58:12.510Z,4.30
2019-02-22T09:59:12.413Z,4.10
2019-02-22T10:00:12.329Z,3.70
2019-02-22T10:01:12.212Z,3.20
2019-02-22T10:02:12.115Z,2.80
2019-02-22T10:03:12.017Z,3.10
2019-02-22T10:04:11.919Z,3.10
2019-02-22T10:05:11.837Z,3.10
2019-02-22T10:06:11.721Z,3.10
2019-02-22T10:07:11.624Z,2.50
2019-02-22T10:08:11.525Z,2.20
2019-02-22T10:09:11.429Z,2.70
2019-02-22T10:10:11.347Z,2.50
2019-02-22T10:11:11.231Z,2.60
2019-02-22T10:12:11.134Z,2.30
2019-02-22T10:13:11.035Z,2.90
2019-02-22T10:14:10.932Z,3.40
2019-02-22T10:15:10.939Z,3.00
2019-02-22T10:16:10.737Z,2.60
2019-02-22T10:17:10.642Z,3.10
2019-02-22T10:18:10.539Z,4.40
2019-02-22T10:19:10.445Z,4.00
2019-02-22T10:20:10.378Z,4.30
2019-02-22T10:21:10.245Z,4.00
2019-02-22T10:22:10.147Z,4.10
2019-02-22T10:23:10.047Z,4.00
2019-02-22T10:24:10.054Z,4.40
2019-02-22T10:25:09.869Z,4.00
2019-02-22T10:26:09.751Z,4.30
2019-02-22T10:27:12.038Z,4.40
2019-02-22T10:28:17.317Z,4.40
2019-02-22T10:29:09.462Z,5.00
2019-02-22T10:30:09.373Z,4.60
2019-02-22T10:31:09.378Z,4.30
2019-02-22T10:32:09.159Z,4.00
2019-02-22T10:33:09.072Z,4.20
2019-02-22T10:34:08.967Z,4.00
2019-02-22T10:35:08.884Z,3.40
2019-02-22T10:36:08.767Z,3.40
2019-02-22T10:37:08.673Z,9.20
2019-02-22T10:38:08.690Z,29.00
2019-02-22T10:39:08.479Z,4.40
2019-02-22T10:40:08.388Z,3.10
2019-02-22T10:41:08.279Z,3.50
2019-02-22T10:42:08.179Z,3.20
2019-02-22T10:43:08.089Z,3.20
2019-02-22T10:44:17.474Z,2.80
2019-02-22T10:45:07.910Z,3.20
2019-02-22T10:46:07.793Z,2.90
2019-02-22T10:47:07.697Z,3.20
2019-02-22T10:48:07.604Z,3.10
2019-02-22T10:49:07.506Z,2.90
2019-02-22T10:50:07.427Z,2.70
2019-02-22T10:51:07.312Z,2.60
2019-02-22T10:52:07.221Z,3.10
2019-02-22T10:53:07.125Z,3.40
2019-02-22T10:54:07.021Z,3.00
2019-02-22T10:55:06.945Z,3.40
2019-02-22T10:56:06.830Z,3.20
2019-02-22T10:57:06.849Z,2.90
2019-02-22T10:58:06.634Z,3.10
2019-02-22T10:59:06.544Z,2.50
2019-02-22T11:00:06.458Z,2.60
2019-02-22T11:01:06.346Z,2.70
2019-02-22T11:02:06.286Z,2.90
2019-02-22T11:03:06.156Z,2.70
2019-02-22T11:04:06.054Z,2.80
2019-02-22T11:05:05.978Z,2.70
2019-02-22T11:06:05.876Z,2.70
2019-02-22T11:07:05.772Z,2.40
2019-02-22T11:08:05.672Z,2.60
2019-02-22T11:09:05.576Z,2.30
2019-02-22T11:10:05.500Z,2.50
2019-02-22T11:11:05.386Z,2.40
2019-02-22T11:12:05.290Z,2.50
2019-02-22T11:13:05.194Z,2.50
2019-02-22T11:14:05.102Z,2.60
2019-02-22T11:15:05.023Z,2.50
2019-02-22T11:16:04.909Z,2.00
2019-02-22T11:17:04.822Z,2.80
2019-02-22T11:18:04.720Z,2.60
2019-02-22T11:19:04.631Z,2.20
2019-02-22T11:20:04.548Z,2.80
2019-02-22T11:21:04.436Z,2.40
2019-02-22T11:22:04.345Z,2.50
2019-02-22T11:23:04.252Z,2.50
2019-02-22T11:24:04.151Z,2.70
2019-02-22T11:25:04.077Z,2.40
2019-02-22T11:26:03.963Z,2.60
2019-02-22T11:27:03.871Z,2.70
2019-02-22T11:28:03.774Z,2.50
2019-02-22T11:29:03.681Z,2.40
2019-02-22T11:30:03.588Z,2.50
2019-02-22T11:31:03.513Z,2.90
2019-02-22T11:32:03.391Z,2.90
2019-02-22T11:33:03.301Z,3.10
2019-02-22T11:34:03.201Z,2.90
2019-02-22T11:35:03.108Z,2.80
2019-02-22T11:36:03.033Z,3.10
2019-02-22T11:37:02.916Z,3.40
2019-02-22T11:38:02.826Z,3.40
2019-02-22T11:39:02.731Z,3.50
2019-02-22T11:40:02.629Z,3.60
2019-02-22T11:41:02.549Z,3.80
2019-02-22T11:42:02.441Z,3.70
2019-02-22T11:43:02.343Z,4.40
2019-02-22T11:44:02.244Z,6.80
2019-02-22T11:45:02.254Z,4.30
2019-02-22T11:46:02.074Z,4.20
2019-02-22T11:47:01.958Z,4.10
2019-02-22T11:48:08.999Z,3.80
2019-02-22T11:49:01.763Z,4.40
2019-02-22T11:50:01.670Z,4.30
2019-02-22T11:51:01.589Z,4.00
2019-02-22T11:52:01.580Z,3.80
2019-02-22T11:53:01.379Z,4.20
2019-02-22T11:54:01.284Z,4.00
2019-02-22T11:55:01.211Z,3.90
2019-02-22T11:56:01.108Z,4.60
2019-02-22T11:57:01.023Z,4.20
2019-02-22T11:58:00.899Z,4.40
2019-02-22T11:59:00.901Z,4.50
2019-02-22T12:00:00.712Z,4.60
2019-02-22T12:01:00.625Z,4.80
2019-02-22T12:02:00.515Z,4.70
2019-02-22T12:03:12.229Z,4.70
2019-02-22T12:04:00.318Z,5.20
2019-02-22T12:05:00.243Z,5.30
2019-02-22T12:06:00.140Z,5.00
2019-02-22T12:07:00.027Z,5.30
2019-02-22T12:07:59.930Z,5.10
2019-02-22T12:08:59.832Z,5.40
2019-02-22T12:09:59.737Z,5.80
2019-02-22T12:10:59.654Z,5.60
2019-02-22T12:11:59.546Z,5.40
2019-02-22T12:12:59.445Z,5.00
2019-02-22T12:13:59.345Z,5.20
2019-02-22T12:14:59.252Z,5.00
2019-02-22T12:15:59.168Z,4.90
2019-02-22T12:16:59.061Z,4.80
2019-02-22T12:17:58.956Z,5.20
2019-02-22T12:18:58.859Z,5.00
2019-02-22T12:19:58.762Z,4.70
2019-02-22T12:20:58.685Z,4.40
2019-02-22T12:21:58.569Z,4.20
2019-02-22T12:22:58.468Z,4.50
2019-02-22T12:23:58.369Z,4.10
2019-02-22T12:24:58.277Z,5.20
2019-02-22T12:25:58.194Z,5.10
2019-02-22T12:26:58.098Z,5.00
2019-02-22T12:27:57.986Z,5.50
2019-02-22T12:28:57.883Z,5.30
2019-02-22T12:29:57.786Z,5.70
2019-02-22T12:30:57.720Z,6.10
2019-02-22T12:31:57.605Z,6.50
2019-02-22T12:32:57.491Z,6.30
2019-02-22T12:33:57.397Z,5.90
2019-02-22T12:34:57.297Z,6.50
2019-02-22T12:35:57.216Z,6.30
2019-02-22T12:36:57.099Z,6.40
2019-02-22T12:37:57.004Z,7.00
2019-02-22T12:38:56.903Z,6.90
2019-02-22T12:39:56.808Z,7.20
2019-02-22T12:40:56.723Z,7.40
2019-02-22T12:41:56.608Z,7.50
2019-02-22T12:42:56.509Z,6.90
2019-02-22T12:43:56.414Z,7.40
2019-02-22T12:45:02.930Z,7.90
2019-02-22T12:45:56.230Z,8.90
2019-02-22T12:46:56.115Z,9.10
2019-02-22T12:47:56.017Z,9.00
2019-02-22T12:48:55.921Z,8.90
2019-02-22T12:49:55.822Z,9.80
2019-02-22T12:50:55.743Z,9.30
2019-02-22T12:51:55.623Z,9.30
2019-02-22T12:52:55.531Z,9.20
2019-02-22T12:53:55.433Z,9.40
2019-02-22T12:54:55.330Z,9.40
2019-02-22T12:55:55.247Z,9.80